LIRALIMJ

Guest
Details From LIRA - CIAMPINO
To LIMJ - Genova Sestri
Flight Number -
Tags generated
Created
Modified
Stats Distance 230 nm / 425 km
Max Altitude 28,100 ft / 8,565 m
Waypoints 4
Social Downloads 0
Likes 0
Share VATSIM

Download

Looking for another format? Having issues loading an existing format? Contact us
Advertisement - Login to hide

Notes

Basic altitude profile: - Ascent Rate: 2500ft/min - Ascent Speed: 250kts - Cruise Altitude: 35000ft - Cruise Speed: 420kts - Descent Rate: 1500ft/min - Descent Speed: 250kts Options: - Use NATs: yes - Use PACOTS: yes - Use low airways: yes - Use high airways: yes

Route

LIRA XIBIL UL153 MAREL LIMJ

ID Type Via Altitude (ft/m) Position (lat/lon) Dist (leg/tot) Name
O LIRA APT - 0 / 0 41.79923 / 12.59492 - / 0 nm CIAMPINO
XIBIL FIX - 28,100 / 8,565 42.79694 / 10.98389 93 / 93 nm
MAREL FIX UL153 (AWY-HI) 24,500 / 7,468 43.28194 / 10.65139 32 / 125 nm
O LIMJ APT - 0 / 0 44.41196 / 8.84187 103 / 229 nm Genova Sestri

Altitude Profile

Advertisement - Login to hide

Weather


0- 5 10 15 20 25 30 35+ Temperature / °C

Clouds and Precipitation
Forecast for 2018-10-18 12:00 UTC. Updated an hour ago

Ground ~20,000 ft ~40,000 ft Winds

LIRA

Details ICAO LIRA (CIA)
Name CIAMPINO
Region Italy
Timezone Europe/Rome (UTC+2.0)
Stats Elevation 425 ft / 130 m (AMSL)
Location 41.799200° 12.594900°
Runways 1
Magnetic Variation 3.146° E

METAR

LIRA 180950Z VRB03KT 9999 FEW030 23/15 Q1013

Decode

TAF

TAF LIRA 180500Z 1806/1906 03008KT CAVOK BECMG 1808/1810 VRB05KT

Decode

Departure Runways

ID Width Length Bearing (true/mag) Surface Threshold Overrun Markings Lighting
15 154 ft / 47 m 7,223 ft / 2,202 m 152.77° / 149.62° ASPHALT 0 ft / 0 m 0 ft / 0 m PREC-APP CENTERLINE EDGE THRESHOLD CALVERT TDZ
33 154 ft / 47 m 7,223 ft / 2,202 m 332.78° / 329.63° ASPHALT 0 ft / 0 m 0 ft / 0 m APP CENTERLINE EDGE THRESHOLD

LIMJ

Details ICAO LIMJ (GOA)
Name Genova Cristoforo Colombo Airport
Region Italy
Timezone Unknown
Stats Elevation 13 ft / 4 m (AMSL)
Location 44.412000° 8.841800°
Runways 1
Magnetic Variation 2.483° E

METAR

LIMJ 180950Z 05012KT 010V120 9999 FEW025 22/13 Q1015

Decode

TAF

TAF LIMJ 180500Z 1806/1906 01010KT 9999 SCT050 BKN060

Decode

Destination Runways

ID Width Length Bearing (true/mag) Surface Threshold Overrun Markings Lighting
10 148 ft / 45 m 9,577 ft / 2,919 m 105.33° / 102.85° CONCRETE 0 ft / 0 m 0 ft / 0 m PREC-APP CENTERLINE EDGE THRESHOLD SALS REIL-OMNI
28 148 ft / 45 m 9,577 ft / 2,919 m 285.36° / 282.88° CONCRETE 522 ft / 159 m 0 ft / 0 m PREC-APP CENTERLINE EDGE THRESHOLD SALS REIL-OMNI

Approach Navaids

Runway Type Ident Frequency Range Bearing (true/mag) Slope Elevation
28 GS GSE 109.30 MHz 10 nm / 19 km 285.40° / 282.92 ° 3.17° 26 ft / 8 m (AMSL)
28 DME GSE 109.30 MHz 18 nm / 33 km - - 26 ft / 8 m (AMSL)
28 LOC-ILS GSE 109.30 MHz 18 nm / 33 km 285.40° / 282.92 ° - 9 ft / 3 m (AMSL)

Popular Alternatives